Главная страница
METAR-TAF:

METAR-TAF

Аэропорты :

Антананариву, Мадагаскар

широта: 18-48S, долгота: 047-29E, высота над уровнем моря: 1279 м

Текущие метеонаблюдения

Эта сводка был подготовлена 23 минут назад, в 04:00 UTC
Ветер 5 Узел от юго-юго-восточный, изменяющийся между юго-восточный и южный-юго-западный
Температура 12°C
Влажность 88%
Давление 1023 hPa
Видимость 10 км и более
небольшая облачность на высоте 1500 фута

METAR: FMMI 270400Z 16005KT 130V200 9999 FEW015 12/10 Q1023 NOSIG

Время: 07:23 (04:23 UTC)

Прогноз

Эта сводка был подготовлена 5 часа и 23 минут назад, в 23:00 UTC
Прогноз действительный с 27-го 00 UTC до 28-го 06 UTC
Ветер 10 Узел от юго-восточный
Видимость 10 км и более
Отдельные облака на высоте 1700 фута
Рассеянная облачность на высоте 2000 фута

TAF: FMMI 262300Z 2700/2806 14010KT 9999 SCT017 BKN020

Метеонаблюдения и прогнозы для более 4000 аэропортов (сводки METAR и TAF).

Имеющиеся станции представлены на карте желтыми и красными точками.

Чтобы увидеть название станции, наведите на нее мышь.

Затем щелкните, чтобы увидеть метеонаблюдения и метеопрогнозы.

Управление картой: чтобы увеличить масштаб, щелкните зеленые кнопки с черным крестиком; чтобы уменьшить масштаб, щелкните зеленую кнопку с тире; для просмотра соседних карт щелкайте зеленые стрелки.


METAR-TAF: